createdAt,value
2023-04-18T10:51:46.655Z,25.8042
2023-04-18T10:52:48.288Z,25.9223
2023-04-18T10:53:50.727Z,26.0912
2023-04-18T10:54:51.564Z,26.2685
2023-04-18T10:55:54.217Z,26.4777
2023-04-18T10:56:54.841Z,26.7177
2023-04-18T10:57:57.577Z,26.9277
2023-04-18T10:58:58.199Z,27.1631
2023-04-18T10:59:59.769Z,27.3577
2023-04-18T11:01:01.646Z,27.5662
2023-04-18T11:02:03.162Z,27.7665
2023-04-18T11:03:05.613Z,27.9508
2023-04-18T11:04:06.405Z,28.1931
2023-04-18T11:05:08.049Z,28.3927
2023-04-18T11:06:09.664Z,28.5800
2023-04-18T11:07:11.407Z,28.7369
2023-04-18T11:08:13.050Z,28.8373
2023-04-18T11:09:14.642Z,28.9727
2023-04-18T11:10:16.202Z,29.1008
2023-04-18T11:11:17.920Z,29.2369
2023-04-18T11:12:19.858Z,29.3100
2023-04-18T11:13:21.857Z,29.3219
2023-04-18T11:14:22.912Z,29.3169
2023-04-18T11:15:24.583Z,29.3035
2023-04-18T11:16:26.300Z,29.2908
2023-04-18T11:17:27.927Z,29.3519
2023-04-18T11:18:29.581Z,29.4550
2023-04-18T11:19:31.206Z,29.5712
2023-04-18T11:20:32.838Z,29.7162
2023-04-18T11:21:34.454Z,29.7877
2023-04-18T11:22:36.831Z,29.8931
2023-04-18T11:23:37.742Z,29.9854
2023-04-18T11:24:39.456Z,30.0519
2023-04-18T11:25:41.003Z,30.1085
2023-04-18T11:26:42.792Z,30.1331
2023-04-18T11:27:44.408Z,30.0873
2023-04-18T11:28:46.035Z,30.0338
2023-04-18T11:29:47.698Z,29.9808
2023-04-18T11:30:49.374Z,29.8742
2023-04-18T11:31:51.038Z,29.8727
2023-04-18T11:32:52.708Z,29.9292
2023-04-18T11:33:54.192Z,29.9892
2023-04-18T11:34:56.775Z,30.0273
2023-04-18T11:35:57.539Z,30.0496
2023-04-18T11:36:59.189Z,30.0885
2023-04-18T11:38:00.871Z,30.1323
2023-04-18T11:39:02.582Z,30.1615
2023-04-18T11:40:04.206Z,30.1946
2023-04-18T11:41:05.785Z,30.2608
2023-04-18T11:42:07.499Z,30.3162
2023-04-18T11:43:09.166Z,30.3188
2023-04-18T11:44:10.776Z,30.2435
2023-04-18T11:45:12.374Z,30.1888
2023-04-18T11:46:14.098Z,30.1427
2023-04-18T11:47:15.665Z,30.1662
2023-04-18T11:48:17.448Z,30.1865
2023-04-18T11:49:19.012Z,30.1754
2023-04-18T11:50:20.634Z,30.1881
2023-04-18T11:51:22.367Z,30.2196
2023-04-18T11:52:23.909Z,30.2527
2023-04-18T11:53:25.620Z,30.2731
2023-04-18T11:54:27.241Z,30.2958
2023-04-18T11:55:28.876Z,30.3288
2023-04-18T11:56:30.499Z,30.3692
2023-04-18T11:57:32.131Z,30.4296
2023-04-18T11:58:33.773Z,30.4819
2023-04-18T11:59:35.494Z,30.5727
2023-04-18T12:00:37.054Z,30.5885
2023-04-18T12:01:38.724Z,30.5354
2023-04-18T12:02:40.494Z,30.4742
2023-04-18T12:03:42.260Z,30.3319
2023-04-18T12:04:44.165Z,30.2708
2023-04-18T12:05:45.594Z,30.2515
2023-04-18T12:06:47.018Z,30.2458
2023-04-18T12:07:48.603Z,30.2519
2023-04-18T12:08:51.207Z,30.2577
2023-04-18T12:09:51.936Z,30.3158
2023-04-18T12:10:54.259Z,30.3419
2023-04-18T12:11:55.204Z,30.3692
2023-04-18T12:12:56.818Z,30.4192
2023-04-18T12:13:58.444Z,30.4477
2023-04-18T12:15:00.292Z,30.4596
2023-04-18T12:16:01.805Z,30.3962
2023-04-18T12:17:03.310Z,30.2962
2023-04-18T12:18:05.810Z,30.2258
2023-04-18T12:19:06.627Z,30.2154
2023-04-18T12:20:08.322Z,30.2335
2023-04-18T12:21:09.933Z,30.2535
2023-04-18T12:22:12.221Z,30.3088
2023-04-18T12:23:13.450Z,30.4177
2023-04-18T12:24:16.626Z,30.4300
2023-04-18T12:25:16.605Z,30.4338
2023-04-18T12:26:18.191Z,30.5077
2023-04-18T12:27:19.858Z,30.5673
2023-04-18T12:28:21.487Z,30.5808
2023-04-18T12:29:23.153Z,30.5915
2023-04-18T12:30:24.846Z,30.6215
2023-04-18T12:31:26.457Z,30.6800
2023-04-18T12:32:28.068Z,30.7312
2023-04-18T12:33:29.729Z,30.8585
2023-04-18T12:34:31.310Z,31.0892
2023-04-18T12:35:33.394Z,31.2277
2023-04-18T12:36:34.636Z,31.2977
2023-04-18T12:37:36.270Z,31.3323
2023-04-18T12:38:37.914Z,31.2873
2023-04-18T12:39:39.590Z,31.2096
2023-04-18T12:40:41.252Z,31.0988
2023-04-18T12:41:42.871Z,30.9562
2023-04-18T12:42:44.494Z,30.8588
2023-04-18T12:43:46.158Z,30.7823
2023-04-18T12:44:48.044Z,30.8223
2023-04-18T12:45:49.460Z,30.9304
2023-04-18T12:46:51.210Z,31.0204
2023-04-18T12:47:52.818Z,31.0338
2023-04-18T12:48:54.363Z,31.0242
2023-04-18T12:49:55.974Z,31.0327
2023-04-18T12:50:57.731Z,31.0573
2023-04-18T12:51:59.274Z,31.0550
2023-04-18T12:53:00.882Z,31.0446
2023-04-18T12:54:02.606Z,31.0069
2023-04-18T12:55:04.204Z,30.8896
2023-04-18T12:56:05.944Z,30.8100
2023-04-18T12:57:07.482Z,30.7773
2023-04-18T12:58:09.197Z,30.7362
2023-04-18T12:59:10.780Z,30.7227
2023-04-18T13:00:12.456Z,30.7100
2023-04-18T13:01:14.247Z,30.7035
2023-04-18T13:02:15.850Z,30.7327
2023-04-18T13:03:17.400Z,30.7565
2023-04-18T13:04:19.236Z,30.8369
2023-04-18T13:05:21.388Z,30.9388
2023-04-18T13:06:22.410Z,31.0012
2023-04-18T13:07:23.927Z,31.0512
2023-04-18T13:08:25.605Z,31.0835
2023-04-18T13:09:27.213Z,31.1312
2023-04-18T13:10:28.891Z,31.0781
2023-04-18T13:11:30.870Z,31.0088
2023-04-18T13:12:32.178Z,30.8962
2023-04-18T13:13:35.604Z,30.8015
2023-04-18T13:14:35.488Z,30.8862
2023-04-18T13:15:37.097Z,31.0219
2023-04-18T13:16:39.762Z,31.1138
2023-04-18T13:17:40.485Z,31.2315
2023-04-18T13:18:42.066Z,31.2742
2023-04-18T13:19:43.716Z,31.3142
2023-04-18T13:20:45.410Z,31.2769
2023-04-18T13:21:49.126Z,31.2135
2023-04-18T13:22:48.775Z,31.0469
2023-04-18T13:23:50.328Z,30.8873
2023-04-18T13:24:51.924Z,30.9073
2023-04-18T13:25:53.597Z,30.9423
2023-04-18T13:26:55.241Z,31.0058
2023-04-18T13:27:57.465Z,31.0973
2023-04-18T13:28:58.524Z,31.1858
2023-04-18T13:30:00.205Z,31.2312
2023-04-18T13:31:01.801Z,31.2181
2023-04-18T13:32:03.593Z,31.2188
2023-04-18T13:33:05.224Z,31.2350
2023-04-18T13:34:06.830Z,31.2312
2023-04-18T13:35:08.424Z,31.2365
2023-04-18T13:36:10.124Z,31.1973
2023-04-18T13:37:11.773Z,31.0985
2023-04-18T13:38:13.415Z,31.0335
2023-04-18T13:39:15.126Z,31.0450
2023-04-18T13:40:16.687Z,31.0904
2023-04-18T13:41:18.291Z,31.1719
2023-04-18T13:42:20.005Z,31.2038
2023-04-18T13:43:21.652Z,31.2400
2023-04-18T13:44:23.271Z,31.2738
2023-04-18T13:45:24.842Z,31.2304
2023-04-18T13:46:26.631Z,31.1946
2023-04-18T13:47:28.395Z,31.1300
2023-04-18T13:48:29.892Z,31.1319
2023-04-18T13:49:31.492Z,31.1162
2023-04-18T13:50:33.166Z,31.0408
2023-04-18T13:51:34.818Z,30.9588
2023-04-18T13:52:36.503Z,31.0681
2023-04-18T13:53:38.108Z,31.1738
2023-04-18T13:54:39.722Z,31.2438
2023-04-18T13:55:41.372Z,31.2446
2023-04-18T13:56:43.044Z,31.1750
2023-04-18T13:57:44.709Z,31.1619
2023-04-18T13:58:46.455Z,31.1619
2023-04-18T13:59:47.961Z,31.1862
2023-04-18T14:00:49.578Z,31.1773
2023-04-18T14:01:51.260Z,31.1419
2023-04-18T14:02:53.576Z,31.1446
2023-04-18T14:03:54.761Z,31.0931
2023-04-18T14:04:56.282Z,31.1135
2023-04-18T14:05:57.856Z,31.1219
2023-04-18T14:06:59.473Z,31.1223
2023-04-18T14:08:01.160Z,31.1388
2023-04-18T14:09:03.758Z,31.0969
2023-04-18T14:10:05.377Z,31.0385
2023-04-18T14:11:06.103Z,30.9073
2023-04-18T14:12:07.889Z,30.7527
2023-04-18T14:13:09.380Z,30.7192
2023-04-18T14:14:11.100Z,30.7396
2023-04-18T14:15:12.740Z,30.7523
2023-04-18T14:16:14.351Z,30.7631
2023-04-18T14:17:15.950Z,30.7312
2023-04-18T14:18:17.640Z,30.7435
2023-04-18T14:19:19.319Z,30.7477
2023-04-18T14:20:21.437Z,30.7142
2023-04-18T14:21:22.494Z,30.6638
2023-04-18T14:22:24.213Z,30.5423
2023-04-18T14:23:25.910Z,30.2454
2023-04-18T14:24:27.521Z,29.9392
2023-04-18T14:25:29.171Z,30.0496
2023-04-18T14:26:30.843Z,30.1719
2023-04-18T14:27:32.421Z,30.2550
2023-04-18T14:28:34.134Z,30.3165
2023-04-18T14:29:36.364Z,30.3269
2023-04-18T14:30:37.456Z,30.3488
2023-04-18T14:31:39.104Z,30.3119
2023-04-18T14:32:40.806Z,30.2677
2023-04-18T14:33:42.317Z,30.2458
2023-04-18T14:34:44.087Z,30.2462
2023-04-18T14:35:45.707Z,30.2646
2023-04-18T14:36:47.278Z,30.2673
2023-04-18T14:37:48.924Z,30.2900
2023-04-18T14:38:50.646Z,30.2969
2023-04-18T14:39:52.300Z,30.3096
2023-04-18T14:40:54.010Z,30.3442
2023-04-18T14:41:55.504Z,30.4023
2023-04-18T14:42:57.204Z,30.4277
2023-04-18T14:43:58.801Z,30.4704
2023-04-18T14:45:00.552Z,30.4615
2023-04-18T14:46:02.174Z,30.4035
2023-04-18T14:47:03.873Z,30.4342
2023-04-18T14:48:06.333Z,30.4808
2023-04-18T14:49:07.061Z,30.4531
2023-04-18T14:50:08.812Z,30.4242
2023-04-18T14:51:10.416Z,30.4927
2023-04-18T14:52:12.068Z,30.5219
2023-04-18T14:53:13.656Z,30.5085
2023-04-18T14:54:15.356Z,30.5100
2023-04-18T14:55:16.991Z,30.5358
2023-04-18T14:56:18.739Z,30.5458
2023-04-18T14:57:20.240Z,30.6138
2023-04-18T14:58:21.920Z,30.6238
2023-04-18T14:59:23.535Z,30.4046
2023-04-18T15:00:25.205Z,30.4000
2023-04-18T15:01:26.921Z,30.3038
2023-04-18T15:02:28.578Z,30.2996
2023-04-18T15:03:31.043Z,30.3319
2023-04-18T15:04:31.906Z,30.3627
2023-04-18T15:05:33.501Z,30.4388
2023-04-18T15:06:35.527Z,30.4896
2023-04-18T15:07:36.737Z,30.5112
2023-04-18T15:08:38.388Z,30.5023
2023-04-18T15:09:40.109Z,30.4750
2023-04-18T15:10:41.720Z,30.4212
2023-04-18T15:11:43.610Z,30.3427
2023-04-18T15:12:44.963Z,30.2938
2023-04-18T15:13:46.681Z,30.3104
2023-04-18T15:14:48.248Z,30.3346
2023-04-18T15:15:50.482Z,30.3577
2023-04-18T15:16:51.687Z,30.3992
2023-04-18T15:17:53.314Z,30.4654
2023-04-18T15:18:54.898Z,30.4869
2023-04-18T15:19:56.495Z,30.3635
2023-04-18T15:20:58.214Z,30.2942
2023-04-18T15:22:00.556Z,30.2635
2023-04-18T15:23:01.493Z,30.2454
2023-04-18T15:24:03.099Z,30.2162
2023-04-18T15:25:04.821Z,30.1877
2023-04-18T15:26:06.485Z,30.1727
2023-04-18T15:27:08.116Z,30.1981
2023-04-18T15:28:09.713Z,30.2385
2023-04-18T15:29:11.385Z,30.2642
2023-04-18T15:30:13.061Z,30.2715
2023-04-18T15:31:14.774Z,30.2654
2023-04-18T15:32:16.446Z,30.2496
2023-04-18T15:33:17.998Z,30.1642
2023-04-18T15:34:19.675Z,29.9465
2023-04-18T15:35:21.900Z,29.9081
2023-04-18T15:36:23.037Z,29.9269
2023-04-18T15:37:24.659Z,29.8927
2023-04-18T15:38:26.228Z,29.8785
2023-04-18T15:39:27.831Z,29.8815
2023-04-18T15:40:29.578Z,29.8838
2023-04-18T15:41:31.220Z,29.9192
2023-04-18T15:42:32.966Z,29.9627
2023-04-18T15:43:34.528Z,29.9746
2023-04-18T15:44:36.176Z,29.9592
2023-04-18T15:45:37.858Z,29.9350
2023-04-18T15:46:41.410Z,29.9319
2023-04-18T15:47:42.101Z,29.9365
2023-04-18T15:48:42.776Z,29.9558
2023-04-18T15:49:44.473Z,29.9812
2023-04-18T15:50:46.041Z,29.9835
2023-04-18T15:51:47.798Z,29.9815
2023-04-18T15:52:49.411Z,29.9619
2023-04-18T15:53:51.008Z,29.9315
2023-04-18T15:54:52.604Z,29.9227
2023-04-18T15:55:54.363Z,29.9350
2023-04-18T15:56:55.925Z,29.9969
2023-04-18T15:57:57.583Z,30.0373
2023-04-18T15:58:59.266Z,30.0527
2023-04-18T16:00:00.941Z,29.9919
2023-04-18T16:01:02.562Z,29.8819
2023-04-18T16:02:05.081Z,29.8346
2023-04-18T16:03:05.957Z,29.8150
2023-04-18T16:04:07.619Z,29.8127
2023-04-18T16:05:09.908Z,29.7954
2023-04-18T16:06:10.778Z,29.7673
2023-04-18T16:07:12.444Z,29.7688
2023-04-18T16:08:14.066Z,29.7742
2023-04-18T16:09:15.709Z,29.7738
2023-04-18T16:10:17.347Z,29.7750
2023-04-18T16:11:18.970Z,29.7712
2023-04-18T16:12:20.748Z,29.7638
2023-04-18T16:13:22.284Z,29.7658
2023-04-18T16:14:23.947Z,29.7504
2023-04-18T16:15:25.528Z,29.7492
2023-04-18T16:16:27.211Z,29.7477
2023-04-18T16:17:28.997Z,29.7650
2023-04-18T16:18:30.534Z,29.7712
2023-04-18T16:19:32.943Z,29.7827
2023-04-18T16:20:33.833Z,29.7915
2023-04-18T16:21:35.416Z,29.7946
2023-04-18T16:22:37.104Z,29.8054
2023-04-18T16:23:38.712Z,29.8100
2023-04-18T16:24:42.011Z,29.8269
2023-04-18T16:25:41.998Z,29.8504
2023-04-18T16:26:43.596Z,29.8158
2023-04-18T16:27:45.298Z,29.7946
2023-04-18T16:28:46.874Z,29.7985
2023-04-18T16:29:48.502Z,29.7942
2023-04-18T16:30:50.181Z,29.7931
2023-04-18T16:31:52.067Z,29.7865
2023-04-18T16:32:54.159Z,29.7688
2023-04-18T16:33:55.345Z,29.7619
2023-04-18T16:34:57.885Z,29.7669
2023-04-18T16:35:58.509Z,29.7658
2023-04-18T16:37:01.177Z,29.7642
2023-04-18T16:38:03.664Z,29.7565
2023-04-18T16:39:08.189Z,29.7532
2023-04-18T16:40:09.878Z,29.7546
2023-04-18T16:41:11.561Z,29.7488
2023-04-18T16:42:15.653Z,29.7300
2023-04-18T16:43:14.776Z,29.7119
2023-04-18T16:44:16.452Z,29.7112
2023-04-18T16:45:17.962Z,29.7119
2023-04-18T16:46:19.723Z,29.7127
2023-04-18T16:47:21.277Z,29.7104
2023-04-18T16:48:22.983Z,29.7162
2023-04-18T16:49:24.590Z,29.7373
2023-04-18T16:50:26.273Z,29.7592
2023-04-18T16:51:27.885Z,29.7769
2023-04-18T16:52:29.543Z,29.8100
2023-04-18T16:53:31.518Z,29.8442
2023-04-18T16:54:32.836Z,29.8635
2023-04-18T16:55:34.470Z,29.9100
2023-04-18T16:56:36.160Z,29.8546
2023-04-18T16:57:37.834Z,29.8065
2023-04-18T16:58:39.380Z,29.7950
2023-04-18T16:59:40.997Z,29.6896
2023-04-18T17:00:42.653Z,29.6342
2023-04-18T17:01:44.329Z,29.6673
2023-04-18T17:02:46.007Z,29.6858
2023-04-18T17:03:47.704Z,29.6946
2023-04-18T17:04:49.307Z,29.7154
2023-04-18T17:05:50.817Z,29.7100
2023-04-18T17:06:52.552Z,29.6992
2023-04-18T17:07:54.107Z,29.7019
2023-04-18T17:08:55.960Z,29.7015
2023-04-18T17:09:57.484Z,29.7077
2023-04-18T17:10:59.191Z,29.7177
2023-04-18T17:12:00.785Z,29.7185
2023-04-18T17:13:02.694Z,29.7173
2023-04-18T17:14:04.145Z,29.7031
2023-04-18T17:15:06.026Z,29.6873
2023-04-18T17:16:07.429Z,29.6692
2023-04-18T17:17:09.051Z,29.6719
2023-04-18T17:18:10.796Z,29.6462
2023-04-18T17:19:12.526Z,29.6058
2023-04-18T17:20:14.983Z,29.5850
2023-04-18T17:21:15.663Z,29.5800
2023-04-18T17:22:17.277Z,29.5515
2023-04-18T17:23:18.977Z,29.5419
2023-04-18T17:24:20.648Z,29.5231
2023-04-18T17:25:22.481Z,29.4796
2023-04-18T17:26:23.917Z,29.4588
2023-04-18T17:27:25.571Z,29.4269
2023-04-18T17:28:27.217Z,29.3888
2023-04-18T17:29:28.879Z,29.3700
2023-04-18T17:30:30.970Z,29.3419
2023-04-18T17:31:32.262Z,29.3023
2023-04-18T17:32:33.908Z,29.2688
2023-04-18T17:33:36.406Z,29.2412
2023-04-18T17:34:37.165Z,29.2058
2023-04-18T17:35:38.797Z,29.1877
2023-04-18T17:36:40.416Z,29.1465
2023-04-18T17:37:42.106Z,29.0985
2023-04-18T17:38:43.764Z,29.0573
2023-04-18T17:39:45.341Z,29.0250
2023-04-18T17:40:47.486Z,28.9858
2023-04-18T17:41:48.573Z,28.9508
2023-04-18T17:42:50.327Z,28.9277
2023-04-18T17:43:51.946Z,28.8892
2023-04-18T17:44:53.651Z,28.8431
2023-04-18T17:45:55.318Z,28.7985
2023-04-18T17:46:56.978Z,28.7785
2023-04-18T17:47:58.793Z,28.7288
2023-04-18T17:49:00.553Z,28.6777
2023-04-18T17:50:02.024Z,28.6296
2023-04-18T17:51:03.685Z,28.5954
2023-04-18T17:52:05.645Z,28.5523
2023-04-18T17:53:06.936Z,28.5046
2023-04-18T17:54:08.686Z,28.4619
2023-04-18T17:55:10.358Z,28.4281
2023-04-18T17:56:12.102Z,28.3746
2023-04-18T17:57:13.513Z,28.3473
2023-04-18T17:58:15.291Z,28.3169
2023-04-18T17:59:16.970Z,28.3019
2023-04-18T18:00:18.534Z,28.2835
2023-04-18T18:01:20.182Z,28.2500
2023-04-18T18:02:23.243Z,28.1700
2023-04-18T18:03:23.417Z,28.1088
2023-04-18T18:04:28.180Z,28.0435
2023-04-18T18:05:26.684Z,28.0065
2023-04-18T18:06:28.367Z,27.9531
2023-04-18T18:07:29.977Z,27.8646
2023-04-18T18:08:31.618Z,27.8454
2023-04-18T18:09:33.198Z,27.7931
2023-04-18T18:10:34.954Z,27.7623
2023-04-18T18:11:36.658Z,27.7423
2023-04-18T18:12:38.204Z,27.7346
2023-04-18T18:13:39.782Z,27.6962
2023-04-18T18:14:41.505Z,27.6608
2023-04-18T18:15:43.216Z,27.6292
2023-04-18T18:16:44.866Z,27.5846
2023-04-18T18:17:46.494Z,27.5635
2023-04-18T18:18:48.074Z,27.5246
2023-04-18T18:19:49.734Z,27.5004
2023-04-18T18:20:51.370Z,27.4762
2023-04-18T18:21:53.089Z,27.4231
2023-04-18T18:22:54.662Z,27.3677
2023-04-18T18:23:56.324Z,27.3181
2023-04-18T18:24:57.969Z,27.3115
2023-04-18T18:25:59.660Z,27.2812
2023-04-18T18:27:01.279Z,27.2708
2023-04-18T18:28:02.903Z,27.2635
2023-04-18T18:29:04.511Z,27.2435
2023-04-18T18:30:06.211Z,27.1854
2023-04-18T18:31:07.908Z,27.1362
2023-04-18T18:32:09.523Z,27.1015
2023-04-18T18:33:11.983Z,27.0550
2023-04-18T18:34:12.771Z,27.0142
2023-04-18T18:35:14.462Z,27.0169
2023-04-18T18:36:16.142Z,26.9569
2023-04-18T18:37:17.704Z,26.9027
2023-04-18T18:38:19.359Z,26.8404
2023-04-18T18:39:21.094Z,26.8273
2023-04-18T18:40:22.682Z,26.7954
2023-04-18T18:41:24.646Z,26.7681
2023-04-18T18:42:25.968Z,26.7319
2023-04-18T18:43:27.593Z,26.6792
2023-04-18T18:44:29.204Z,26.6712
2023-04-18T18:45:30.887Z,26.6481
2023-04-18T18:46:32.685Z,26.5646
2023-04-18T18:47:34.922Z,26.5273
2023-04-18T18:48:35.816Z,26.5173
2023-04-18T18:49:37.483Z,26.5012
2023-04-18T18:50:39.133Z,26.5069
2023-04-18T18:51:40.853Z,26.4565
2023-04-18T18:52:42.435Z,26.4062
2023-04-18T18:53:45.160Z,26.3708
2023-04-18T18:54:45.716Z,26.3450
2023-04-18T18:55:47.290Z,26.2962
2023-04-18T18:56:49.024Z,26.2938
2023-04-18T18:57:50.694Z,26.2712
2023-04-18T18:58:52.439Z,26.2304
2023-04-18T18:59:55.721Z,26.2027
2023-04-18T19:00:55.575Z,26.1423
2023-04-18T19:01:57.292Z,26.1281
2023-04-18T19:02:59.713Z,26.1096
2023-04-18T19:04:00.710Z,26.0992
2023-04-18T19:05:02.317Z,26.0612
2023-04-18T19:06:03.728Z,26.0338
2023-04-18T19:07:05.449Z,25.9992
2023-04-18T19:08:07.197Z,25.9715
2023-04-18T19:09:08.757Z,25.9246
2023-04-18T19:10:10.370Z,25.8815
2023-04-18T19:11:12.016Z,25.8365
2023-04-18T19:12:13.738Z,25.8231
2023-04-18T19:13:15.397Z,25.7992
2023-04-18T19:14:17.019Z,25.7788
2023-04-18T19:15:18.567Z,25.7688
2023-04-18T19:16:20.347Z,25.7619
2023-04-18T19:17:22.037Z,25.7427
2023-04-18T19:18:23.631Z,25.7288
2023-04-18T19:19:25.136Z,25.6881
2023-04-18T19:20:28.721Z,25.6196
2023-04-18T19:21:28.513Z,25.5931
2023-04-18T19:22:30.230Z,25.5604
2023-04-18T19:23:32.096Z,25.5265
2023-04-18T19:24:33.448Z,25.5031
2023-04-18T19:25:35.048Z,25.4846
2023-04-18T19:26:36.727Z,25.4515
2023-04-18T19:27:38.414Z,25.4400
2023-04-18T19:28:40.156Z,25.3723
2023-04-18T19:29:41.679Z,25.3442
2023-04-18T19:30:43.314Z,25.3327
2023-04-18T19:31:44.942Z,25.3131
2023-04-18T19:32:46.695Z,25.2935
2023-04-18T19:33:48.327Z,25.2842
2023-04-18T19:34:49.905Z,25.2823
2023-04-18T19:35:51.610Z,25.2781
2023-04-18T19:36:53.237Z,25.2373
2023-04-18T19:37:54.911Z,25.1958
2023-04-18T19:38:56.611Z,25.1658
2023-04-18T19:39:58.216Z,25.1219
2023-04-18T19:40:59.803Z,25.0935
2023-04-18T19:42:01.400Z,25.0627
2023-04-18T19:43:03.619Z,25.0227
2023-04-18T19:44:04.773Z,25.0035
2023-04-18T19:45:06.432Z,24.9781
2023-04-18T19:46:08.199Z,24.9504
2023-04-18T19:47:09.717Z,24.9265
2023-04-18T19:48:11.404Z,24.8908
2023-04-18T19:49:13.308Z,24.8650
2023-04-18T19:50:14.723Z,24.8369
2023-04-18T19:51:16.272Z,24.8277
2023-04-18T19:52:18.007Z,24.8177
2023-04-18T19:53:20.301Z,24.8100
2023-04-18T19:54:21.972Z,24.7815
2023-04-18T19:55:23.024Z,24.7635
2023-04-18T19:56:24.532Z,24.7431
2023-04-18T19:57:26.256Z,24.7223
2023-04-18T19:58:27.819Z,24.7012
2023-04-18T19:59:29.515Z,24.6835
2023-04-18T20:00:31.134Z,24.6815
2023-04-18T20:01:32.854Z,24.6388
2023-04-18T20:02:34.640Z,24.5854
2023-04-18T20:03:36.276Z,24.6008
2023-04-18T20:04:37.985Z,24.5550
2023-04-18T20:05:39.409Z,24.5281
2023-04-18T20:06:41.009Z,24.5115
2023-04-18T20:07:42.676Z,24.4985
2023-04-18T20:08:44.326Z,24.4623
2023-04-18T20:09:45.957Z,24.4523
2023-04-18T20:10:47.601Z,24.4142
2023-04-18T20:11:49.261Z,24.4250
2023-04-18T20:12:50.843Z,24.4173
2023-04-18T20:13:52.598Z,24.3804
2023-04-18T20:14:54.175Z,24.3546
2023-04-18T20:15:55.834Z,24.3223
2023-04-18T20:16:57.568Z,24.2942
2023-04-18T20:17:59.256Z,24.2900
2023-04-18T20:19:00.803Z,24.2765
2023-04-18T20:20:02.380Z,24.2635
2023-04-18T20:21:04.087Z,24.2492
2023-04-18T20:22:05.697Z,24.2412
2023-04-18T20:23:07.309Z,24.1927
2023-04-18T20:24:09.026Z,24.1750
2023-04-18T20:25:10.653Z,24.1731
2023-04-18T20:26:13.094Z,24.1623
2023-04-18T20:27:13.890Z,24.1469
2023-04-18T20:28:15.581Z,24.1077
2023-04-18T20:29:17.285Z,24.0681
2023-04-18T20:30:18.856Z,24.0562
2023-04-18T20:31:20.574Z,24.0388
2023-04-18T20:32:22.139Z,24.0354
2023-04-18T20:33:23.825Z,24.0185
2023-04-18T20:34:25.506Z,24.0096
2023-04-18T20:35:27.163Z,23.9823
2023-04-18T20:36:28.777Z,23.9258
2023-04-18T20:37:30.445Z,23.9246
2023-04-18T20:38:32.092Z,23.9208
2023-04-18T20:39:33.776Z,23.8773
2023-04-18T20:40:35.354Z,23.8792
2023-04-18T20:41:37.022Z,23.8896
2023-04-18T20:42:38.637Z,23.8842
2023-04-18T20:43:40.370Z,23.8823
2023-04-18T20:44:42.074Z,23.8619
2023-04-18T20:45:43.650Z,23.8615
2023-04-18T20:46:45.274Z,23.8527
2023-04-18T20:47:46.957Z,23.8188
2023-04-18T20:48:48.510Z,23.8104
2023-04-18T20:49:50.165Z,23.8096
2023-04-18T20:50:51.947Z,23.7942
2023-04-18T20:51:53.424Z,23.7819
2023-04-18T20:52:55.162Z,23.7800
2023-04-18T20:53:56.716Z,23.7850
2023-04-18T20:54:58.477Z,23.7823
2023-04-18T20:56:00.086Z,23.7804
2023-04-18T20:57:01.719Z,23.7769
2023-04-18T20:58:03.335Z,23.7842
2023-04-18T20:59:05.068Z,23.7731
2023-04-18T21:00:06.685Z,23.7642
2023-04-18T21:01:08.356Z,23.7535
2023-04-18T21:02:10.089Z,23.7465
2023-04-18T21:03:11.750Z,23.7388
2023-04-18T21:04:13.680Z,23.7188
2023-04-18T21:05:14.971Z,23.7292
2023-04-18T21:06:16.506Z,23.7485
2023-04-18T21:07:18.199Z,23.7704
2023-04-18T21:08:19.820Z,23.7712
2023-04-18T21:09:21.488Z,23.7612
2023-04-18T21:10:23.161Z,23.7569
2023-04-18T21:11:24.790Z,23.7392
2023-04-18T21:12:26.351Z,23.6950
2023-04-18T21:13:28.083Z,23.6654
2023-04-18T21:14:29.681Z,23.6746
2023-04-18T21:15:31.401Z,23.6527
2023-04-18T21:16:33.141Z,23.6438
2023-04-18T21:17:34.692Z,23.5935
2023-04-18T21:18:36.541Z,23.5804
2023-04-18T21:19:37.977Z,23.6581
2023-04-18T21:20:39.672Z,23.7027
2023-04-18T21:21:41.259Z,23.7235
2023-04-18T21:22:42.911Z,23.6938
2023-04-18T21:23:44.542Z,23.6688
2023-04-18T21:24:46.190Z,23.6415
2023-04-18T21:25:47.903Z,23.6154
2023-04-18T21:26:49.441Z,23.6050
2023-04-18T21:27:51.149Z,23.6004
2023-04-18T21:28:52.755Z,23.5685
2023-04-18T21:29:54.440Z,23.5519
2023-04-18T21:30:56.164Z,23.5350
2023-04-18T21:31:57.785Z,23.5504
2023-04-18T21:32:59.377Z,23.5538
2023-04-18T21:34:01.068Z,23.5665
2023-04-18T21:35:03.605Z,23.6108
2023-04-18T21:36:04.353Z,23.6319
2023-04-18T21:37:05.962Z,23.6415
2023-04-18T21:38:07.538Z,23.6188
2023-04-18T21:39:09.241Z,23.5800
2023-04-18T21:40:10.952Z,23.5558
2023-04-18T21:41:12.612Z,23.5227
2023-04-18T21:42:14.110Z,23.5100
2023-04-18T21:43:15.841Z,23.4942
2023-04-18T21:44:17.477Z,23.4865
2023-04-18T21:45:19.194Z,23.4908
2023-04-18T21:46:24.220Z,23.5085
2023-04-18T21:47:22.402Z,23.5535
2023-04-18T21:48:24.013Z,23.5846
2023-04-18T21:49:25.643Z,23.6365
2023-04-18T21:50:27.306Z,23.6492
2023-04-18T21:51:29.113Z,23.6385
2023-04-18T21:52:30.597Z,23.6100
2023-04-18T21:53:32.259Z,23.5500
2023-04-18T21:54:33.881Z,23.5238
2023-04-18T21:55:35.561Z,23.4865
2023-04-18T21:56:37.224Z,23.4873
2023-04-18T21:57:38.826Z,23.4938
2023-04-18T21:58:40.453Z,23.4792
2023-04-18T21:59:42.209Z,23.4808
2023-04-18T22:00:43.846Z,23.5242
2023-04-18T22:01:45.449Z,23.5719
2023-04-18T22:02:47.313Z,23.5981
2023-04-18T22:03:48.888Z,23.5842
2023-04-18T22:04:50.332Z,23.5569
2023-04-18T22:05:52.548Z,23.4992
2023-04-18T22:06:53.682Z,23.4892
2023-04-18T22:07:58.458Z,23.4592
2023-04-18T22:08:56.928Z,23.4558
2023-04-18T22:09:58.606Z,23.4562
2023-04-18T22:11:01.142Z,23.4888
2023-04-18T22:12:01.958Z,23.5196
2023-04-18T22:13:03.601Z,23.5481
2023-04-18T22:14:05.216Z,23.5981
2023-04-18T22:15:06.817Z,23.6112
2023-04-18T22:16:09.101Z,23.6273
2023-04-18T22:17:10.180Z,23.5562
2023-04-18T22:18:11.792Z,23.5096
2023-04-18T22:19:13.410Z,23.4619
2023-04-18T22:20:15.079Z,23.4431
2023-04-18T22:21:16.734Z,23.3981
2023-04-18T22:22:18.408Z,23.3665
2023-04-18T22:23:20.050Z,23.3804
2023-04-18T22:24:21.802Z,23.4308
2023-04-18T22:25:23.322Z,23.4988
2023-04-18T22:26:25.006Z,23.5308
2023-04-18T22:27:27.122Z,23.5608
2023-04-18T22:28:28.291Z,23.5796
2023-04-18T22:29:29.895Z,23.5688
2023-04-18T22:30:31.686Z,23.5208
2023-04-18T22:31:34.061Z,23.4904
2023-04-18T22:32:34.938Z,23.4138
2023-04-18T22:33:36.532Z,23.3977
2023-04-18T22:34:38.104Z,23.3900
2023-04-18T22:35:39.807Z,23.3746
2023-04-18T22:36:41.439Z,23.4196
2023-04-18T22:37:43.599Z,23.4912
2023-04-18T22:38:44.754Z,23.5388
2023-04-18T22:39:46.375Z,23.5754
2023-04-18T22:40:48.007Z,23.5862
2023-04-18T22:41:49.722Z,23.5673
2023-04-18T22:42:51.336Z,23.5677
2023-04-18T22:43:52.992Z,23.5404
2023-04-18T22:44:54.633Z,23.4931
2023-04-18T22:45:56.353Z,23.4385
2023-04-18T22:46:57.974Z,23.3827
2023-04-18T22:48:00.628Z,23.3769
2023-04-18T22:49:01.360Z,23.4112
2023-04-18T22:50:03.090Z,23.4715
2023-04-18T22:51:04.686Z,23.5354
2023-04-18T22:52:06.342Z,23.5769
2023-04-18T22:53:08.082Z,23.6296
2023-04-18T22:54:09.649Z,23.6638
2023-04-18T22:55:11.369Z,23.6650
2023-04-18T22:56:12.922Z,23.6496
2023-04-18T22:57:15.275Z,23.6185
2023-04-18T22:58:16.296Z,23.5600
2023-04-18T22:59:18.791Z,23.5123
2023-04-18T23:00:19.527Z,23.4385
2023-04-18T23:01:23.016Z,23.4081
2023-04-18T23:02:23.005Z,23.4381
2023-04-18T23:03:24.893Z,23.4900
2023-04-18T23:04:26.267Z,23.5365
2023-04-18T23:05:27.763Z,23.5762
2023-04-18T23:06:29.392Z,23.6319
2023-04-18T23:07:30.959Z,23.6542
2023-04-18T23:08:32.718Z,23.6535
2023-04-18T23:09:34.264Z,23.6196
2023-04-18T23:10:35.972Z,23.5619
2023-04-18T23:11:37.589Z,23.4938
2023-04-18T23:12:39.276Z,23.4473
2023-04-18T23:13:40.966Z,23.3977
2023-04-18T23:14:42.573Z,23.3619
2023-04-18T23:15:44.182Z,23.4058
2023-04-18T23:16:45.882Z,23.4731